Time;durP1;ratioP1;P1;durP2;ratioP2;P2;SDS_P1;SDS_P2;PMS_P1;PMS_P2;Temp;Humidity;BMP_temperature;BMP_pressure;BME280_temperature;BME280_humidity;BME280_pressure;Samples;Min_cycle;Max_cycle;Signal;HPM_P1;HPM_P2
2021/05/09 00:01:12;;;;;;;3.67;2.60;;;;;;;1.58;76.53;96375.13;1820210;79;23240;-62
2021/05/09 00:03:49;;;;;;;4.73;2.90;;;;;;;1.48;76.74;96377.45;1824281;77;22870;-62
2021/05/09 00:06:27;;;;;;;4.47;2.60;;;;;;;1.47;76.63;96373.10;1870511;76;22834;-61
2021/05/09 00:09:06;;;;;;;3.47;2.57;;;;;;;1.47;76.81;96386.11;1889908;76;23279;-61
2021/05/09 00:11:43;;;;;;;3.47;2.20;;;;;;;1.45;76.89;96377.80;1780604;79;23023;-61
2021/05/09 00:14:22;;;;;;;4.87;2.30;;;;;;;1.37;76.25;96383.20;1820193;79;22640;-62
2021/05/09 00:16:59;;;;;;;3.00;2.07;;;;;;;1.35;76.45;96382.27;1780668;79;23505;-61
2021/05/09 00:19:36;;;;;;;3.33;2.23;;;;;;;1.35;76.81;96381.84;1780703;79;23019;-63
2021/05/09 00:22:13;;;;;;;7.03;2.63;;;;;;;1.31;77.91;96389.11;1820306;79;22789;-61
2021/05/09 00:24:50;;;;;;;4.13;2.90;;;;;;;1.36;77.90;96387.52;1780574;79;23474;-61
2021/05/09 00:27:27;;;;;;;2.80;2.00;;;;;;;1.43;77.40;96383.37;1817716;79;22186;-61
2021/05/09 00:30:07;;;;;;;4.90;2.23;;;;;;;1.40;76.87;96388.48;1820194;79;23416;-61
2021/05/09 00:32:43;;;;;;;3.93;2.60;;;;;;;1.27;76.79;96386.81;1820126;79;23378;-62
2021/05/09 00:35:21;;;;;;;3.63;2.00;;;;;;;1.19;77.10;96388.73;1820195;79;22628;-62
2021/05/09 00:37:59;;;;;;;4.10;2.27;;;;;;;1.17;76.59;96391.70;1780682;79;23028;-61
2021/05/09 00:40:37;;;;;;;3.10;2.45;;;;;;;1.12;77.58;96390.25;1804147;79;28379;-61
2021/05/09 00:43:17;;;;;;;3.50;2.40;;;;;;;1.29;78.09;96381.25;1780666;79;23026;-61
2021/05/09 00:45:54;;;;;;;3.63;2.43;;;;;;;1.22;77.87;96387.52;1780723;79;23036;-61
2021/05/09 00:48:32;;;;;;;3.10;2.30;;;;;;;1.17;78.02;96387.80;1824383;77;22886;-62
2021/05/09 00:51:10;;;;;;;4.40;2.50;;;;;;;1.20;77.34;96386.59;1780661;79;23491;-61
2021/05/09 00:53:50;;;;;;;4.13;2.00;;;;;;;1.14;76.91;96392.48;1780574;79;23033;-62
2021/05/09 00:56:27;;;;;;;3.23;2.10;;;;;;;1.07;77.21;96390.53;1870432;76;23474;-62
2021/05/09 00:59:06;;;;;;;2.77;1.87;;;;;;;1.00;77.41;96390.75;1890003;76;22737;-62
2021/05/09 01:01:46;;;;;;;2.03;1.83;;;;;;;1.08;77.46;96398.78;1780569;79;23377;-62
2021/05/09 01:04:24;;;;;;;2.77;1.93;;;;;;;1.00;78.28;96389.45;1780788;79;23026;-62
2021/05/09 01:07:03;;;;;;;4.03;2.30;;;;;;;1.04;78.52;96392.62;1820114;79;23302;-63
2021/05/09 01:09:41;;;;;;;2.70;2.10;;;;;;;1.07;78.35;96401.80;1850630;77;23309;-61
2021/05/09 01:12:19;;;;;;;2.30;1.83;;;;;;;1.11;78.20;96399.30;1780687;79;23053;-62
2021/05/09 01:14:57;;;;;;;2.90;2.00;;;;;;;1.00;78.61;96397.67;1780570;79;23045;-62
2021/05/09 01:17:35;;;;;;;2.53;2.10;;;;;;;0.94;79.15;96400.09;1824334;77;23024;-62
2021/05/09 01:20:19;;;;;;;2.43;1.70;;;;;;;0.92;78.76;96406.95;1820215;79;22926;-62
2021/05/09 01:22:56;;;;;;;1.63;1.40;;;;;;;0.93;78.21;96404.80;1820172;79;22558;-61
2021/05/09 01:25:34;;;;;;;1.87;1.40;;;;;;;0.85;77.95;96400.66;1820122;79;23333;-62
2021/05/09 01:28:12;;;;;;;4.43;2.03;;;;;;;0.75;78.19;96402.08;1850670;77;23312;-61
2021/05/09 01:30:51;;;;;;;2.97;2.20;;;;;;;0.74;78.35;96407.25;1824347;77;22871;-63
2021/05/09 01:33:28;;;;;;;2.73;2.00;;;;;;;0.73;78.16;96405.47;1780787;79;23042;-62
2021/05/09 01:36:06;;;;;;;2.50;2.10;;;;;;;0.69;78.37;96408.39;1780591;79;23518;-62
2021/05/09 01:38:43;;;;;;;2.57;1.87;;;;;;;0.65;78.82;96403.92;1780791;79;23021;-61
2021/05/09 01:41:24;;;;;;;3.40;2.20;;;;;;;0.70;79.98;96406.67;1780571;79;23497;-61
2021/05/09 01:44:03;;;;;;;4.37;2.43;;;;;;;0.73;79.12;96402.48;1780627;79;23003;-61
2021/05/09 01:46:40;;;;;;;6.00;2.47;;;;;;;0.71;79.05;96408.45;1780682;79;23034;-61
2021/05/09 01:49:18;;;;;;;2.27;1.90;;;;;;;0.63;78.82;96410.38;1780566;79;23019;-61
2021/05/09 01:51:55;;;;;;;2.87;2.13;;;;;;;0.60;79.79;96406.36;1780693;79;23547;-62
2021/05/09 01:54:33;;;;;;;3.07;2.20;;;;;;;0.60;80.60;96411.98;1780596;79;23033;-62
2021/05/09 01:57:10;;;;;;;2.40;1.90;;;;;;;0.71;80.45;96411.05;1780701;79;23045;-61
2021/05/09 01:59:50;;;;;;;2.80;1.90;;;;;;;0.84;79.76;96411.91;1820215;79;22806;-61
2021/05/09 02:02:27;;;;;;;2.30;1.90;;;;;;;0.90;79.39;96412.51;1870527;76;22857;-61
2021/05/09 02:05:10;;;;;;;2.90;1.90;;;;;;;1.00;79.22;96414.56;1820152;79;22776;-62
2021/05/09 02:07:47;;;;;;;2.73;2.17;;;;;;;1.10;78.79;96413.14;1780711;79;23055;-62
2021/05/09 02:10:26;;;;;;;2.63;2.07;;;;;;;1.05;78.38;96405.19;1824288;77;22867;-61
2021/05/09 02:13:04;;;;;;;3.17;2.20;;;;;;;1.03;78.62;96408.16;1780699;79;23033;-62
2021/05/09 02:15:46;;;;;;;3.07;2.10;;;;;;;1.02;78.86;96405.10;1780638;79;23490;-62
2021/05/09 02:18:23;;;;;;;5.60;1.80;;;;;;;0.97;78.75;96415.77;1780591;79;23036;-61
2021/05/09 02:21:02;;;;;;;2.67;1.83;;;;;;;0.86;78.52;96417.61;1780674;79;23018;-61
2021/05/09 02:23:39;;;;;;;2.53;2.00;;;;;;;0.85;79.53;96421.45;1780678;79;23018;-62
2021/05/09 02:26:18;;;;;;;3.33;1.90;;;;;;;0.83;79.37;96421.42;1819938;79;22796;-62
2021/05/09 02:28:56;;;;;;;1.83;1.53;;;;;;;0.84;79.42;96428.37;1780694;79;23025;-62
2021/05/09 02:31:33;;;;;;;3.10;1.23;;;;;;;0.79;79.39;96418.67;1780614;79;23336;-61
2021/05/09 02:34:11;;;;;;;1.87;1.60;;;;;;;0.82;78.98;96427.85;1780674;79;23536;-62
2021/05/09 02:36:49;;;;;;;2.47;1.70;;;;;;;0.84;79.04;96427.06;1820195;79;23243;-61
2021/05/09 02:39:26;;;;;;;3.03;1.70;;;;;;;0.76;79.23;96428.97;1820110;79;22813;-61
2021/05/09 02:42:05;;;;;;;3.83;2.00;;;;;;;0.77;80.27;96424.22;1780559;79;23467;-61
2021/05/09 02:44:43;;;;;;;2.53;2.13;;;;;;;0.81;79.49;96432.17;1780633;79;23465;-61
2021/05/09 02:47:30;;;;;;;2.37;2.00;;;;;;;0.86;79.50;96434.92;1870399;76;22850;-62
2021/05/09 02:50:15;;;;;;;2.07;1.67;;;;;;;0.90;79.50;96440.66;1820208;79;22944;-62
2021/05/09 02:52:53;;;;;;;1.83;1.50;;;;;;;0.85;79.12;96441.81;1820070;79;23385;-62
2021/05/09 02:55:30;;;;;;;2.53;2.27;;;;;;;0.73;79.33;96441.44;1820149;79;22940;-62
2021/05/09 02:58:09;;;;;;;4.07;2.07;;;;;;;0.70;79.59;96446.93;1780655;79;23056;-63
2021/05/09 03:00:46;;;;;;;2.07;1.77;;;;;;;0.66;80.35;96453.75;1780678;79;23045;-61
2021/05/09 03:03:25;;;;;;;2.10;1.27;;;;;;;0.74;79.56;96455.30;1890013;76;22848;-61
2021/05/09 03:06:05;;;;;;;2.27;1.63;;;;;;;0.77;79.60;96457.99;1824418;77;23029;-61
2021/05/09 03:08:43;;;;;;;2.00;1.50;;;;;;;0.67;80.05;96463.30;1780679;79;23034;-62
2021/05/09 03:11:21;;;;;;;2.87;1.90;;;;;;;0.68;79.92;96469.37;1820116;79;22788;-61
2021/05/09 03:13:59;;;;;;;2.67;1.40;;;;;;;0.70;79.57;96469.88;1780510;79;23036;-61
2021/05/09 03:16:36;;;;;;;3.93;1.90;;;;;;;0.69;79.43;96469.85;1820250;79;22201;-62
2021/05/09 03:19:13;;;;;;;3.43;2.23;;;;;;;0.72;79.56;96468.65;1817734;79;21551;-61
2021/05/09 03:21:52;;;;;;;2.37;1.83;;;;;;;0.71;80.27;96474.69;1820099;79;22791;-61
2021/05/09 03:24:29;;;;;;;3.60;2.27;;;;;;;0.73;80.37;96479.10;1780692;79;23015;-61
2021/05/09 03:27:06;;;;;;;20.00;7.07;;;;;;;0.78;80.41;96478.84;1780589;79;23034;-62
2021/05/09 03:29:43;;;;;;;24.50;7.97;;;;;;;0.76;80.04;96486.99;1780862;79;22924;-62
2021/05/09 03:32:20;;;;;;;10.37;4.13;;;;;;;0.70;80.24;96484.17;1820209;79;23428;-61
2021/05/09 03:34:58;;;;;;;7.43;2.50;;;;;;;0.74;80.05;96495.14;1780514;79;23074;-61
2021/05/09 03:37:36;;;;;;;3.17;2.20;;;;;;;0.80;79.95;96492.73;1817741;79;21260;-61
2021/05/09 03:40:15;;;;;;;9.10;4.53;;;;;;;0.83;80.11;96490.66;1780609;79;23029;-62
2021/05/09 03:42:52;;;;;;;3.40;2.20;;;;;;;0.84;80.84;96490.72;1820074;79;22675;-61
2021/05/09 03:45:30;;;;;;;6.47;3.30;;;;;;;0.91;80.85;96490.91;1820279;79;23235;-61
2021/05/09 03:48:07;;;;;;;3.23;2.17;;;;;;;0.88;81.25;96496.89;1870527;76;22842;-61
2021/05/09 03:50:45;;;;;;;5.17;3.10;;;;;;;0.93;81.77;96497.92;1824317;77;23321;-61
2021/05/09 03:53:22;;;;;;;6.27;3.90;;;;;;;1.01;81.28;96499.50;1780663;79;22589;-62
2021/05/09 03:55:59;;;;;;;6.40;4.00;;;;;;;1.15;81.30;96494.31;1780541;79;23053;-62
2021/05/09 03:58:36;;;;;;;8.00;4.37;;;;;;;1.26;80.86;96498.55;1780628;79;23473;-62
2021/05/09 04:01:13;;;;;;;6.40;3.70;;;;;;;1.32;80.85;96496.58;1817722;79;22636;-61
2021/05/09 04:03:50;;;;;;;7.53;3.93;;;;;;;1.44;80.85;96491.77;1817632;79;22633;-62
2021/05/09 04:06:28;;;;;;;16.03;7.23;;;;;;;1.55;80.70;96491.66;1780708;79;23481;-61
2021/05/09 04:09:06;;;;;;;16.27;8.63;;;;;;;1.66;80.37;96491.59;1780674;79;23034;-62
2021/05/09 04:11:43;;;;;;;16.67;8.03;;;;;;;1.75;80.07;96499.20;1819880;79;23253;-62
2021/05/09 04:14:23;;;;;;;18.90;8.80;;;;;;;1.85;80.15;96497.33;1817658;79;22344;-62
2021/05/09 04:19:50;;;;;;;42.43;18.10;;;;;;;2.00;80.11;96491.69;1780723;79;23036;-62
2021/05/09 04:22:27;;;;;;;42.53;22.00;;;;;;;2.10;79.92;96493.72;1802116;79;28002;-61
2021/05/09 04:25:07;;;;;;;39.40;18.40;;;;;;;2.35;79.11;96492.69;1824299;77;23039;-62
2021/05/09 04:27:44;;;;;;;29.33;13.70;;;;;;;2.31;78.89;96495.61;1780591;79;23508;-61
2021/05/09 04:30:23;;;;;;;27.87;15.70;;;;;;;2.40;78.80;96499.33;1796006;77;28034;-62
2021/05/09 04:33:04;;;;;;;14.13;8.20;;;;;;;2.73;78.03;96493.70;1820314;79;22829;-62
2021/05/09 04:35:44;;;;;;;10.77;6.33;;;;;;;2.76;77.93;96496.81;1820187;79;22929;-61
2021/05/09 04:38:22;;;;;;;9.97;4.97;;;;;;;2.80;77.87;96493.45;1780539;79;23027;-61
2021/05/09 04:41:00;;;;;;;5.60;3.93;;;;;;;2.90;77.50;96497.15;1780598;79;23035;-61
2021/05/09 04:43:39;;;;;;;3.63;2.90;;;;;;;3.01;77.31;96498.32;1780789;79;23053;-61
2021/05/09 04:46:16;;;;;;;6.33;3.83;;;;;;;3.11;76.66;96493.80;1780587;79;23036;-62
2021/05/09 04:48:53;;;;;;;7.37;5.08;;;;;;;3.23;76.54;96488.00;1802055;79;27944;-61
2021/05/09 04:51:32;;;;;;;5.43;3.93;;;;;;;3.55;75.51;96490.47;1824343;77;22866;-62
2021/05/09 04:54:10;;;;;;;4.47;3.30;;;;;;;3.57;75.50;96492.70;1820206;79;22786;-62
2021/05/09 04:56:47;;;;;;;4.80;3.20;;;;;;;3.62;75.31;96497.16;1820133;79;23278;-61
2021/05/09 04:59:25;;;;;;;5.10;3.37;;;;;;;3.71;75.53;96496.94;1780523;79;23057;-62
2021/05/09 05:02:02;;;;;;;6.97;3.80;;;;;;;3.79;75.63;96491.46;1817751;79;22240;-62
2021/05/09 05:04:39;;;;;;;5.37;3.87;;;;;;;3.92;74.97;96496.09;1817778;79;22632;-62
2021/05/09 05:07:16;;;;;;;6.30;3.57;;;;;;;4.05;74.85;96497.23;1849039;76;22760;-61
2021/05/09 05:09:53;;;;;;;6.30;3.97;;;;;;;4.17;74.74;96490.09;1780661;79;23473;-61
2021/05/09 05:12:30;;;;;;;9.23;6.53;;;;;;;4.31;74.67;96494.75;1801963;79;28400;-62
2021/05/09 05:15:10;;;;;;;7.97;4.93;;;;;;;4.69;74.06;96501.57;1870650;76;22857;-62
2021/05/09 05:17:47;;;;;;;7.63;4.50;;;;;;;4.79;73.96;96496.96;1820223;79;22806;-62
2021/05/09 05:20:24;;;;;;;7.33;4.33;;;;;;;4.93;73.86;96498.07;1817608;79;21543;-61
2021/05/09 05:23:02;;;;;;;5.77;3.93;;;;;;;5.09;73.44;96502.26;1820209;79;22801;-61
2021/05/09 05:25:41;;;;;;;5.97;3.77;;;;;;;5.24;72.87;96493.79;1820238;79;22824;-61
2021/05/09 05:28:18;;;;;;;5.77;4.07;;;;;;;5.40;72.55;96498.00;1870321;76;22854;-61
2021/05/09 05:30:56;;;;;;;5.70;3.47;;;;;;;5.55;72.48;96494.75;1780806;79;23474;-62
2021/05/09 05:33:36;;;;;;;7.50;4.10;;;;;;;5.72;72.35;96487.15;1780836;79;23084;-62
2021/05/09 05:36:12;;;;;;;6.70;4.70;;;;;;;5.90;72.41;96493.52;1890020;76;22856;-62
2021/05/09 05:38:49;;;;;;;5.70;4.23;;;;;;;6.06;72.05;96486.33;1780701;79;23477;-62
2021/05/09 05:41:29;;;;;;;5.60;3.53;;;;;;;6.24;71.32;96486.99;1824089;77;23144;-62
2021/05/09 05:44:08;;;;;;;5.17;3.83;;;;;;;6.40;71.06;96486.73;1780686;79;23027;-62
2021/05/09 05:46:46;;;;;;;5.80;3.57;;;;;;;6.58;70.88;96489.59;1824412;77;22452;-61
2021/05/09 05:49:23;;;;;;;5.77;3.47;;;;;;;6.76;68.31;96488.91;1817550;79;22636;-62
2021/05/09 05:52:01;;;;;;;4.30;2.97;;;;;;;6.92;69.32;96481.63;1780664;79;22910;-62
2021/05/09 05:54:38;;;;;;;4.40;3.03;;;;;;;7.14;69.23;96482.72;1780700;79;23493;-62
2021/05/09 05:57:16;;;;;;;10.73;9.63;;;;;;;7.28;67.33;96481.95;1780722;79;23469;-62
2021/05/09 05:59:53;;;;;;;4.95;4.40;;;;;;;7.45;67.82;96480.79;1802060;79;38291;-62
2021/05/09 06:02:31;;;;;;;4.63;3.50;;;;;;;7.79;67.36;96478.84;1824046;77;22866;-62
2021/05/09 06:05:09;;;;;;;7.03;5.20;;;;;;;7.95;67.37;96482.44;1802054;79;27942;-62
2021/05/09 06:07:47;;;;;;;7.00;5.17;;;;;;;8.36;66.12;96491.41;1820204;79;23265;-62
2021/05/09 06:10:24;;;;;;;4.57;3.10;;;;;;;8.49;66.36;96490.61;1820061;79;22190;-61
2021/05/09 06:13:03;;;;;;;4.63;3.13;;;;;;;8.68;65.07;96487.63;1889886;76;22842;-62
2021/05/09 06:15:41;;;;;;;5.07;3.23;;;;;;;8.86;65.12;96485.03;1780683;79;23473;-62
2021/05/09 06:18:19;;;;;;;4.37;3.00;;;;;;;9.04;65.26;96474.97;1870514;76;22850;-62
2021/05/09 06:20:57;;;;;;;3.83;2.43;;;;;;;9.24;64.85;96474.13;1780713;79;22888;-62
2021/05/09 06:23:34;;;;;;;4.07;2.67;;;;;;;9.41;62.42;96476.78;1780564;79;23480;-62
2021/05/09 06:26:11;;;;;;;4.80;3.15;;;;;;;9.55;63.06;96467.13;1802175;79;27955;-62
2021/05/09 06:28:49;;;;;;;5.80;3.72;;;;;;;9.90;60.99;96472.34;1802052;79;38259;-62
2021/05/09 06:31:26;;;;;;;4.63;2.90;;;;;;;10.24;57.68;96470.06;1780485;79;23477;-62
2021/05/09 06:34:06;;;;;;;3.43;2.50;;;;;;;10.30;51.29;96470.06;1850757;77;22857;-62
2021/05/09 06:36:44;;;;;;;3.37;2.27;;;;;;;10.44;52.43;96476.17;1780693;79;23476;-61
2021/05/09 06:39:26;;;;;;;4.47;2.90;;;;;;;10.55;50.62;96472.16;1802048;79;28373;-62
2021/05/09 06:42:00;;;;;;;3.70;2.97;;;;;;;10.84;48.70;96477.31;1780596;79;23041;-62
2021/05/09 06:44:45;;;;;;;4.23;2.53;;;;;;;10.88;49.29;96464.95;1780662;79;23055;-62
2021/05/09 06:47:16;;;;;;;3.43;2.10;;;;;;;10.91;44.67;96467.57;1780655;79;23019;-62
2021/05/09 06:49:54;;;;;;;2.77;2.13;;;;;;;10.99;42.25;96469.75;1780701;79;23471;-62
2021/05/09 06:52:31;;;;;;;3.43;2.10;;;;;;;11.13;45.89;96464.36;1820022;79;23379;-62
2021/05/09 06:55:11;;;;;;;3.30;2.30;;;;;;;11.23;45.33;96464.27;1817730;79;22643;-62
2021/05/09 06:57:48;;;;;;;3.40;2.37;;;;;;;11.36;44.34;96462.41;1780556;79;23038;-62
2021/05/09 07:00:26;;;;;;;3.40;2.23;;;;;;;11.49;46.34;96459.27;1780679;79;23465;-61
2021/05/09 07:03:04;;;;;;;4.07;2.30;;;;;;;11.60;43.79;96463.13;1850725;77;23330;-62
2021/05/09 07:05:41;;;;;;;3.70;2.13;;;;;;;11.67;42.40;96459.09;1780592;79;23052;-61
2021/05/09 07:08:18;;;;;;;3.87;2.13;;;;;;;11.76;43.58;96457.24;1780672;79;23035;-62
2021/05/09 07:10:56;;;;;;;2.70;2.07;;;;;;;11.87;42.85;96467.33;1792067;79;23365;-62
2021/05/09 07:13:33;;;;;;;3.07;2.10;;;;;;;11.97;43.93;96461.05;1817309;79;22665;-62
2021/05/09 07:16:10;;;;;;;3.90;2.33;;;;;;;12.06;41.60;96464.91;1820326;79;22636;-62
2021/05/09 07:18:47;;;;;;;2.60;1.90;;;;;;;12.09;42.40;96471.47;1780669;79;23022;-62
2021/05/09 07:21:27;;;;;;;3.10;1.90;;;;;;;12.20;40.85;96474.03;1849096;76;23109;-62
2021/05/09 07:24:07;;;;;;;2.07;1.67;;;;;;;12.36;41.51;96472.53;1780808;79;23477;-62
2021/05/09 07:26:45;;;;;;;2.67;2.17;;;;;;;12.43;39.78;96473.77;1780392;79;23018;-62
2021/05/09 07:29:22;;;;;;;3.57;2.03;;;;;;;12.53;41.32;96474.08;1850752;77;23303;-62
2021/05/09 07:31:59;;;;;;;3.00;2.12;;;;;;;12.66;39.18;96478.78;1802062;79;27905;-62
2021/05/09 07:34:36;;;;;;;2.63;1.83;;;;;;;12.84;37.66;96476.79;1820154;79;22353;-61
2021/05/09 07:37:13;;;;;;;3.63;2.10;;;;;;;12.89;40.48;96477.60;1817713;79;22186;-62
2021/05/09 07:39:51;;;;;;;3.83;2.10;;;;;;;13.01;38.59;96472.14;1780689;79;23029;-62
2021/05/09 07:42:28;;;;;;;2.58;2.12;;;;;;;13.05;38.88;96468.53;1801967;79;28412;-61
2021/05/09 07:45:14;;;;;;;3.30;2.10;;;;;;;13.34;38.24;96472.13;1820356;79;23238;-62
2021/05/09 07:47:47;;;;;;;2.63;2.13;;;;;;;13.35;36.15;96463.25;1780557;79;23007;-62
2021/05/09 07:50:26;;;;;;;3.23;2.10;;;;;;;13.40;38.47;96470.69;1780668;79;23018;-62
2021/05/09 07:53:04;;;;;;;3.17;1.90;;;;;;;13.51;38.17;96461.26;1820216;79;22954;-62
2021/05/09 07:55:41;;;;;;;2.17;1.60;;;;;;;13.65;38.14;96464.99;1780510;79;23475;-62
2021/05/09 07:58:22;;;;;;;3.93;1.93;;;;;;;13.72;37.91;96465.78;1847882;77;22210;-62
2021/05/09 08:01:04;;;;;;;2.30;1.50;;;;;;;13.84;37.84;96462.92;1820156;79;22779;-63
2021/05/09 08:03:41;;;;;;;2.50;1.60;;;;;;;13.87;35.67;96464.18;1870515;76;22847;-61
2021/05/09 08:06:19;;;;;;;2.50;1.93;;;;;;;13.97;36.79;96473.73;1780683;79;23052;-62
2021/05/09 08:08:56;;;;;;;3.20;2.50;;;;;;;14.00;35.02;96466.16;1817591;79;21531;-62
2021/05/09 08:11:33;;;;;;;7.05;3.22;;;;;;;14.15;36.39;96465.88;1802055;79;28407;-62
2021/05/09 08:14:10;;;;;;;2.10;1.67;;;;;;;14.41;36.32;96456.53;1824317;77;23340;-61
2021/05/09 08:16:47;;;;;;;2.37;1.73;;;;;;;14.45;35.53;96464.87;1824028;77;23066;-62
2021/05/09 08:19:25;;;;;;;3.50;1.73;;;;;;;14.59;37.03;96461.53;1780671;79;23470;-62
2021/05/09 08:22:04;;;;;;;2.00;1.60;;;;;;;14.63;36.18;96464.98;1820125;79;23234;-63
2021/05/09 08:24:42;;;;;;;2.07;1.63;;;;;;;14.71;36.16;96465.69;1820239;79;23379;-62
2021/05/09 08:27:20;;;;;;;2.20;1.87;;;;;;;14.77;36.63;96463.39;1780574;79;23497;-62
2021/05/09 08:29:57;;;;;;;2.33;1.67;;;;;;;14.81;34.23;96465.05;1820096;79;23384;-62
2021/05/09 08:32:35;;;;;;;2.70;1.90;;;;;;;14.91;34.46;96471.45;1824360;77;22864;-62
2021/05/09 08:35:12;;;;;;;2.40;1.87;;;;;;;14.96;34.01;96466.05;1890015;76;22863;-62
2021/05/09 08:37:49;;;;;;;1.70;1.50;;;;;;;14.98;31.71;96460.25;1817466;79;22190;-62
2021/05/09 08:40:26;;;;;;;2.50;1.90;;;;;;;14.96;33.40;96462.52;1780677;79;23456;-62
2021/05/09 08:43:04;;;;;;;2.70;1.97;;;;;;;15.04;32.96;96465.88;1780621;79;23463;-63
2021/05/09 08:45:41;;;;;;;2.83;1.93;;;;;;;15.15;34.13;96458.55;1780684;79;23460;-62
2021/05/09 08:48:22;;;;;;;3.87;1.90;;;;;;;15.21;33.63;96455.73;1833280;76;38381;-62
2021/05/09 08:51:03;;;;;;;2.33;1.97;;;;;;;15.48;33.43;96455.55;1780623;79;23032;-62
2021/05/09 08:53:43;;;;;;;4.37;2.10;;;;;;;15.57;34.52;96459.33;1890158;76;22850;-62
2021/05/09 08:56:21;;;;;;;2.23;1.67;;;;;;;15.76;36.25;96455.77;1780691;79;23036;-62
2021/05/09 08:58:58;;;;;;;4.43;1.80;;;;;;;15.86;34.09;96456.41;1780379;79;23018;-62
2021/05/09 09:01:40;;;;;;;2.77;1.67;;;;;;;15.90;32.46;96451.88;1780696;79;23471;-62
2021/05/09 09:04:15;;;;;;;2.13;1.83;;;;;;;16.03;31.80;96449.77;1780577;79;23018;-62
2021/05/09 09:06:54;;;;;;;2.93;1.90;;;;;;;16.04;31.54;96448.41;1780670;79;23460;-62
2021/05/09 09:09:30;;;;;;;3.17;2.00;;;;;;;15.89;30.22;96444.36;1889996;76;22840;-62
2021/05/09 09:12:09;;;;;;;2.70;1.80;;;;;;;15.89;28.48;96448.81;1850784;77;23019;-62
2021/05/09 09:14:57;;;;;;;2.50;1.77;;;;;;;15.98;29.08;96436.61;1780654;79;23027;-61
2021/05/09 09:17:34;;;;;;;2.43;1.83;;;;;;;16.03;29.86;96440.02;1780709;79;23010;-62
2021/05/09 09:23:04;;;;;;;1.97;1.70;;;;;;;16.40;34.67;96445.22;1870555;76;22835;-62
2021/05/09 09:25:42;;;;;;;4.07;1.90;;;;;;;16.46;34.08;96443.30;1780599;79;23446;-61
2021/05/09 09:28:20;;;;;;;2.70;1.80;;;;;;;16.61;31.67;96441.06;1780576;79;23052;-62
2021/05/09 09:30:58;;;;;;;2.90;1.77;;;;;;;16.77;31.58;96428.16;1870610;76;23304;-62
2021/05/09 09:33:35;;;;;;;1.93;1.80;;;;;;;16.86;31.35;96435.05;1820093;79;23264;-61
2021/05/09 09:36:19;;;;;;;3.30;2.00;;;;;;;16.94;31.52;96430.36;1780638;79;23040;-61
2021/05/09 09:38:57;;;;;;;3.47;1.80;;;;;;;17.07;32.23;96424.19;1780645;79;23022;-61
2021/05/09 09:41:49;;;;;;;3.80;1.90;;;;;;;17.08;32.50;96425.48;1850667;77;23308;-62
2021/05/09 09:44:28;;;;;;;3.93;1.80;;;;;;;17.20;33.20;96425.55;1780604;79;23024;-62
2021/05/09 09:47:05;;;;;;;3.40;2.30;;;;;;;17.27;34.35;96425.77;1780667;79;23010;-62
2021/05/09 09:49:43;;;;;;;3.33;1.97;;;;;;;17.30;32.68;96424.33;1780687;79;23019;-62
2021/05/09 09:52:27;;;;;;;3.30;2.23;;;;;;;17.35;33.51;96425.98;1820211;79;22967;-61
2021/05/09 09:55:14;;;;;;;3.75;2.17;;;;;;;17.23;30.83;96435.24;1889916;76;22846;-61
2021/05/09 09:58:05;;;;;;;2.60;2.10;;;;;;;17.42;30.93;96420.41;1765338;79;28497;-62
2021/05/09 10:00:48;;;;;;;3.02;1.82;;;;;;;17.75;32.75;96430.89;1780568;79;23014;-62
2021/05/09 10:03:25;;;;;;;3.17;2.02;;;;;;;17.77;31.54;96429.05;1780729;79;23472;-62
2021/05/09 10:06:03;;;;;;;4.70;1.97;;;;;;;17.85;31.12;96434.16;1780677;79;23025;-62
2021/05/09 10:08:41;;;;;;;1.72;1.60;;;;;;;17.91;32.22;96424.13;1780587;79;23014;-62
2021/05/09 10:11:20;;;;;;;2.52;1.95;;;;;;;17.78;29.65;96420.11;1780685;79;23039;-62
2021/05/09 10:13:58;;;;;;;2.55;1.57;;;;;;;17.74;27.65;96406.00;1780564;79;23057;-61
2021/05/09 10:16:42;;;;;;;3.25;2.75;;;;;;;17.84;29.87;96410.61;1820173;79;22966;-62
2021/05/09 10:19:24;;;;;;;3.30;1.92;;;;;;;17.90;31.48;96414.85;1824445;77;23017;-62
2021/05/09 10:22:31;;;;;;;3.05;1.82;;;;;;;17.99;34.27;96414.98;1889875;76;22832;-62
2021/05/09 10:25:12;;;;;;;3.00;2.60;;;;;;;18.03;30.80;96416.64;1808778;77;27979;-62
2021/05/09 10:27:51;;;;;;;3.70;2.30;;;;;;;18.33;30.37;96413.34;1780569;79;23007;-62
2021/05/09 10:30:34;;;;;;;2.17;1.80;;;;;;;18.40;28.88;96408.66;1824390;77;23004;-62
2021/05/09 10:33:41;;;;;;;1.95;1.75;;;;;;;18.43;32.63;96404.53;1780712;79;23482;-61
2021/05/09 10:36:24;;;;;;;2.92;2.08;;;;;;;18.48;29.28;96402.09;1765347;79;28042;-62
2021/05/09 10:39:12;;;;;;;2.05;1.72;;;;;;;18.69;29.55;96394.20;1820224;79;23233;-62
2021/05/09 10:42:04;;;;;;;2.35;1.67;;;;;;;18.87;30.22;96401.53;1870505;76;23295;-62
2021/05/09 10:44:49;;;;;;;3.08;2.05;;;;;;;19.08;29.98;96395.84;1780571;79;23457;-62
2021/05/09 10:47:32;;;;;;;2.70;1.72;;;;;;;19.00;27.22;96393.94;1780698;79;23032;-61
2021/05/09 10:50:23;;;;;;;2.40;1.70;;;;;;;18.88;25.66;96390.41;1780592;79;23041;-62
2021/05/09 10:53:00;;;;;;;2.30;2.10;;;;;;;18.99;30.22;96389.03;1824327;77;23303;-62
2021/05/09 10:55:45;;;;;;;2.92;2.27;;;;;;;19.14;29.77;96394.72;1820218;79;22644;-62
2021/05/09 10:58:50;;;;;;;2.60;1.85;;;;;;;19.16;28.73;96396.87;1780484;79;22902;-62
2021/05/09 11:01:32;;;;;;;3.80;1.90;;;;;;;19.34;28.67;96400.14;1824344;77;22882;-61
2021/05/09 11:04:12;;;;;;;3.08;1.65;;;;;;;19.40;29.11;96402.59;1824222;77;23292;-62
2021/05/09 11:06:51;;;;;;;2.05;1.70;;;;;;;19.42;28.38;96402.03;1824390;77;22853;-62
2021/05/09 11:09:29;;;;;;;2.83;2.00;;;;;;;19.36;27.70;96393.41;1780693;79;23023;-61
2021/05/09 11:12:08;;;;;;;2.62;1.70;;;;;;;19.38;30.89;96395.08;1780594;79;23022;-61
2021/05/09 11:14:50;;;;;;;3.30;1.62;;;;;;;19.55;28.71;96386.81;1780421;79;23025;-62
2021/05/09 11:17:30;;;;;;;2.30;1.90;;;;;;;19.70;27.81;96379.51;1870369;76;22542;-62
2021/05/09 11:20:10;;;;;;;2.27;1.67;;;;;;;19.69;30.96;96382.27;1792057;79;22641;-61
2021/05/09 11:22:48;;;;;;;2.25;1.70;;;;;;;19.81;30.87;96382.63;1780676;79;23018;-62
2021/05/09 11:25:33;;;;;;;5.62;1.82;;;;;;;19.95;29.91;96378.00;1820207;79;23278;-62
2021/05/09 11:28:12;;;;;;;2.55;1.57;;;;;;;20.10;27.75;96377.33;1820180;79;23350;-62
2021/05/09 11:30:49;;;;;;;1.67;1.57;;;;;;;20.19;25.96;96370.71;1780683;79;23036;-61
2021/05/09 11:33:49;;;;;;;2.62;1.72;;;;;;;20.22;27.26;96373.72;1780595;79;23043;-61
2021/05/09 11:36:28;;;;;;;2.98;1.60;;;;;;;20.33;30.76;96366.06;1820217;79;22950;-61
2021/05/09 11:39:22;;;;;;;2.45;1.90;;;;;;;20.45;27.22;96365.98;1820097;79;22660;-61
2021/05/09 11:42:03;;;;;;;2.40;1.67;;;;;;;20.41;25.05;96353.65;1820339;79;22798;-61
2021/05/09 11:44:44;;;;;;;2.02;1.75;;;;;;;20.47;25.34;96352.05;1780546;79;23465;-61
2021/05/09 11:47:32;;;;;;;2.40;1.80;;;;;;;20.89;27.46;96348.33;1780523;79;23014;-62
2021/05/09 11:50:11;;;;;;;5.10;1.90;;;;;;;21.31;28.59;96346.73;1824361;77;23300;-62
2021/05/09 11:52:50;;;;;;;3.05;1.90;;;;;;;21.71;24.55;96346.59;1780603;79;23500;-62
2021/05/09 11:55:27;;;;;;;2.12;1.60;;;;;;;21.84;24.83;96345.02;1820187;79;23385;-61
2021/05/09 11:58:12;;;;;;;2.00;1.57;;;;;;;22.22;28.39;96336.80;1780687;79;23014;-61
2021/05/09 12:00:49;;;;;;;4.45;1.65;;;;;;;22.46;23.79;96330.13;1824297;77;22863;-62
2021/05/09 12:03:27;;;;;;;3.42;1.72;;;;;;;23.14;25.92;96330.95;1870612;76;22853;-62
2021/05/09 12:06:11;;;;;;;1.90;1.70;;;;;;;23.68;25.27;96325.52;1820351;79;21122;-62
2021/05/09 12:08:48;;;;;;;3.33;1.75;;;;;;;23.94;22.94;96333.93;1850622;77;22860;-62
2021/05/09 12:11:26;;;;;;;2.45;1.72;;;;;;;24.24;19.94;96320.42;1780689;79;23060;-62
2021/05/09 12:14:03;;;;;;;1.95;1.70;;;;;;;24.54;24.15;96319.48;1820160;79;22792;-62
2021/05/09 12:16:47;;;;;;;2.70;1.75;;;;;;;24.57;23.73;96320.67;1780679;79;23019;-61
2021/05/09 12:19:34;;;;;;;1.72;1.40;;;;;;;24.11;19.25;96319.41;1780701;79;23018;-62
2021/05/09 12:22:12;;;;;;;1.87;1.60;;;;;;;24.61;21.52;96315.45;1831986;77;27846;-61
2021/05/09 12:24:56;;;;;;;2.10;1.77;;;;;;;25.51;18.25;96313.30;1820224;79;22936;-63
2021/05/09 12:27:46;;;;;;;1.80;1.50;;;;;;;25.18;18.13;96314.06;1780704;79;23449;-63
2021/05/09 12:30:29;;;;;;;1.62;1.32;;;;;;;25.50;20.91;96319.64;1780583;79;22987;-63
2021/05/09 12:33:07;;;;;;;3.98;1.65;;;;;;;25.45;20.15;96319.95;1780733;79;23002;-62
2021/05/09 12:35:50;;;;;;;1.72;1.40;;;;;;;25.46;20.33;96314.95;1820158;79;22458;-62
2021/05/09 12:38:35;;;;;;;1.42;1.32;;;;;;;25.97;20.83;96317.83;1780730;79;23014;-63